Time;durP1;ratioP1;P1;durP2;ratioP2;P2;SDS_P1;SDS_P2;PMS_P1;PMS_P2;Temp;Humidity;BMP_temperature;BMP_pressure;BME280_temperature;BME280_humidity;BME280_pressure;Samples;Min_cycle;Max_cycle;Signal;HPM_P1;HPM_P2
2022/11/10 00:00:17;;;;;;;6.43;2.30;;;;;;;;;;5004376;28;20949;-44
2022/11/10 00:02:43;;;;;;;8.80;3.80;;;;;;;;;;5003949;28;20503;-43
2022/11/10 00:05:09;;;;;;;9.10;2.90;;;;;;;;;;5003022;28;20446;-44
2022/11/10 00:07:35;;;;;;;13.00;3.00;;;;;;;;;;5001950;28;20539;-43
2022/11/10 00:10:01;;;;;;;10.30;2.97;;;;;;;;;;5017315;28;20415;-44
2022/11/10 00:12:27;;;;;;;11.53;5.30;;;;;;;;;;5000420;28;20443;-43
2022/11/10 00:17:38;;;;;;;8.50;2.90;;;;;;;;;;4998798;28;20437;-44
2022/11/10 00:20:04;;;;;;;10.70;2.70;;;;;;;;;;5000855;28;20419;-44
2022/11/10 00:22:30;;;;;;;7.70;3.10;;;;;;;;;;4998050;28;20485;-46
2022/11/10 00:24:56;;;;;;;8.47;2.63;;;;;;;;;;5001408;28;20427;-44
2022/11/10 00:27:22;;;;;;;8.50;3.30;;;;;;;;;;5000702;28;20415;-44
2022/11/10 00:29:48;;;;;;;8.60;2.80;;;;;;;;;;5002300;28;20411;-43
2022/11/10 00:32:14;;;;;;;9.33;2.80;;;;;;;;;;5002234;28;20431;-46
2022/11/10 00:34:40;;;;;;;6.53;2.93;;;;;;;;;;4999825;28;20417;-46
2022/11/10 00:37:06;;;;;;;7.67;2.63;;;;;;;;;;5004091;28;20416;-44
2022/11/10 00:39:32;;;;;;;10.50;3.30;;;;;;;;;;4996589;28;20407;-44
2022/11/10 00:41:58;;;;;;;13.13;3.00;;;;;;;;;;5003647;28;20423;-44
2022/11/10 00:44:25;;;;;;;8.93;3.20;;;;;;;;;;5002207;28;20415;-43
2022/11/10 00:46:50;;;;;;;6.80;2.60;;;;;;;;;;5003066;28;20773;-43
2022/11/10 00:49:16;;;;;;;14.53;3.00;;;;;;;;;;5001435;28;20416;-44
2022/11/10 00:51:42;;;;;;;7.20;4.00;;;;;;;;;;5002350;28;20440;-44
2022/11/10 00:54:08;;;;;;;7.03;2.97;;;;;;;;;;4998272;28;20979;-44
2022/11/10 00:56:34;;;;;;;7.43;3.57;;;;;;;;;;5003115;28;20888;-45
2022/11/10 00:59:00;;;;;;;8.60;2.60;;;;;;;;;;5001909;28;20802;-46
2022/11/10 01:01:26;;;;;;;5.37;2.77;;;;;;;;;;4999446;28;20474;-43
2022/11/10 01:03:53;;;;;;;7.23;3.10;;;;;;;;;;5002547;28;20459;-44
2022/11/10 01:06:20;;;;;;;15.03;3.47;;;;;;;;;;4999176;28;20420;-44
2022/11/10 01:08:49;;;;;;;22.87;5.33;;;;;;;;;;5001657;28;20476;-46
2022/11/10 01:11:19;;;;;;;9.27;3.30;;;;;;;;;;4992525;28;20440;-44
2022/11/10 01:13:45;;;;;;;6.93;2.77;;;;;;;;;;5005686;28;20992;-44
2022/11/10 01:16:13;;;;;;;11.27;3.60;;;;;;;;;;4998572;28;20443;-43
2022/11/10 01:18:39;;;;;;;4.07;2.63;;;;;;;;;;4997854;28;20507;-44
2022/11/10 01:21:05;;;;;;;13.77;2.90;;;;;;;;;;4999183;28;21072;-44
2022/11/10 01:23:31;;;;;;;8.83;2.97;;;;;;;;;;5000113;28;20460;-45
2022/11/10 01:25:58;;;;;;;6.87;3.10;;;;;;;;;;5007133;28;20490;-45
2022/11/10 01:28:24;;;;;;;17.37;3.07;;;;;;;;;;5006137;28;20418;-44
2022/11/10 01:30:56;;;;;;;18.60;3.30;;;;;;;;;;5004036;28;20415;-43
2022/11/10 01:33:21;;;;;;;8.87;2.93;;;;;;;;;;5007353;28;20431;-44
2022/11/10 01:35:47;;;;;;;10.37;3.30;;;;;;;;;;4999965;28;20435;-46
2022/11/10 01:38:15;;;;;;;12.20;2.97;;;;;;;;;;5007430;28;20498;-47
2022/11/10 01:40:41;;;;;;;7.30;3.30;;;;;;;;;;5001004;28;20424;-44
2022/11/10 01:43:08;;;;;;;7.93;2.83;;;;;;;;;;5006204;28;20455;-44
2022/11/10 01:45:55;;;;;;;12.60;2.93;;;;;;;;;;5004490;28;20495;-46
2022/11/10 01:48:33;;;;;;;4.73;2.57;;;;;;;;;;4999081;28;20408;-46
2022/11/10 01:51:01;;;;;;;10.53;3.37;;;;;;;;;;5001580;28;20493;-46
2022/11/10 01:53:28;;;;;;;15.43;2.60;;;;;;;;;;5006564;28;20760;-45
2022/11/10 01:55:55;;;;;;;6.77;2.83;;;;;;;;;;5007699;28;20437;-44
2022/11/10 01:58:28;;;;;;;11.60;2.87;;;;;;;;;;5007028;28;20506;-47
2022/11/10 02:00:54;;;;;;;15.93;3.07;;;;;;;;;;5000822;28;20407;-45
2022/11/10 02:03:26;;;;;;;11.63;3.30;;;;;;;;;;5000815;28;20455;-47
2022/11/10 02:05:52;;;;;;;13.53;3.77;;;;;;;;;;5005618;28;20470;-47
2022/11/10 02:08:18;;;;;;;13.77;3.10;;;;;;;;;;5006101;28;20490;-48
2022/11/10 02:10:44;;;;;;;7.30;2.77;;;;;;;;;;5002986;28;20489;-47
2022/11/10 02:13:11;;;;;;;13.27;3.07;;;;;;;;;;5003386;28;20420;-43
2022/11/10 02:15:37;;;;;;;5.63;2.63;;;;;;;;;;5002693;28;20427;-47
2022/11/10 02:18:03;;;;;;;7.10;3.17;;;;;;;;;;5006682;28;20554;-44
2022/11/10 02:20:29;;;;;;;15.93;3.50;;;;;;;;;;5002650;28;20428;-44
2022/11/10 02:22:55;;;;;;;7.43;2.60;;;;;;;;;;5006312;28;20513;-44
2022/11/10 02:25:22;;;;;;;11.30;4.17;;;;;;;;;;5003782;28;20452;-44
2022/11/10 02:27:48;;;;;;;14.20;3.13;;;;;;;;;;5005665;28;20442;-44
2022/11/10 02:30:14;;;;;;;8.33;2.90;;;;;;;;;;5002792;28;20440;-44
2022/11/10 02:32:40;;;;;;;11.63;3.40;;;;;;;;;;5003657;28;20789;-47
2022/11/10 02:35:06;;;;;;;18.13;4.70;;;;;;;;;;5002740;28;20442;-43
2022/11/10 02:37:32;;;;;;;6.90;2.80;;;;;;;;;;5008691;28;20419;-44
2022/11/10 02:39:59;;;;;;;8.00;2.70;;;;;;;;;;5002600;28;20439;-44
2022/11/10 02:42:25;;;;;;;6.07;2.37;;;;;;;;;;5004012;28;20990;-45
2022/11/10 02:44:51;;;;;;;8.00;3.30;;;;;;;;;;5003782;28;20921;-45
2022/11/10 02:47:17;;;;;;;15.57;5.23;;;;;;;;;;5002429;28;20496;-47
2022/11/10 02:49:44;;;;;;;11.60;3.00;;;;;;;;;;5004239;28;20503;-44
2022/11/10 02:52:10;;;;;;;11.83;2.97;;;;;;;;;;5006476;28;20811;-43
2022/11/10 02:54:36;;;;;;;8.70;3.30;;;;;;;;;;5006944;28;20423;-44
2022/11/10 02:57:02;;;;;;;8.97;3.23;;;;;;;;;;5001424;28;20411;-44
2022/11/10 02:59:28;;;;;;;12.80;3.13;;;;;;;;;;4999278;28;20806;-43
2022/11/10 03:01:54;;;;;;;6.73;3.07;;;;;;;;;;5011137;28;20949;-44
2022/11/10 03:04:20;;;;;;;10.00;3.87;;;;;;;;;;5005757;28;20494;-44
2022/11/10 03:06:46;;;;;;;9.13;3.70;;;;;;;;;;5009198;28;20501;-44
2022/11/10 03:09:12;;;;;;;9.90;3.10;;;;;;;;;;5002521;28;20407;-44
2022/11/10 03:11:38;;;;;;;5.80;3.10;;;;;;;;;;4997585;28;20953;-45
2022/11/10 03:14:04;;;;;;;9.03;3.33;;;;;;;;;;5006019;28;20415;-47
2022/11/10 03:16:30;;;;;;;10.77;3.03;;;;;;;;;;5005453;28;20419;-44
2022/11/10 03:18:56;;;;;;;4.30;2.60;;;;;;;;;;5003559;28;20418;-44
2022/11/10 03:21:22;;;;;;;7.60;2.80;;;;;;;;;;5002713;28;20909;-45
2022/11/10 03:23:48;;;;;;;10.63;3.50;;;;;;;;;;5004227;28;20455;-44
2022/11/10 03:26:14;;;;;;;12.37;3.97;;;;;;;;;;5002438;28;20412;-44
2022/11/10 03:28:39;;;;;;;8.37;3.23;;;;;;;;;;5003192;28;20498;-44
2022/11/10 03:31:05;;;;;;;15.57;3.03;;;;;;;;;;5001427;28;20440;-45
2022/11/10 03:33:31;;;;;;;6.13;2.97;;;;;;;;;;5007576;28;20431;-44
2022/11/10 03:35:57;;;;;;;10.20;3.97;;;;;;;;;;4998806;28;21001;-44
2022/11/10 03:38:23;;;;;;;12.57;2.50;;;;;;;;;;5001847;28;20777;-44
2022/11/10 03:40:50;;;;;;;16.77;3.63;;;;;;;;;;5002113;28;20470;-44
2022/11/10 03:43:16;;;;;;;9.13;4.20;;;;;;;;;;5001715;28;20455;-43
2022/11/10 03:45:45;;;;;;;11.70;3.57;;;;;;;;;;5002541;28;20424;-44
2022/11/10 03:48:11;;;;;;;8.90;3.33;;;;;;;;;;5000955;28;20507;-43
2022/11/10 03:50:37;;;;;;;7.93;2.83;;;;;;;;;;5005711;28;20510;-44
2022/11/10 03:53:02;;;;;;;10.67;3.40;;;;;;;;;;5000624;28;20422;-44
2022/11/10 03:55:28;;;;;;;7.67;3.40;;;;;;;;;;4998395;28;20412;-44
2022/11/10 03:57:54;;;;;;;12.47;4.00;;;;;;;;;;4998651;28;20431;-47
2022/11/10 04:00:21;;;;;;;17.63;3.30;;;;;;;;;;5000313;28;20412;-46
2022/11/10 04:02:47;;;;;;;7.37;3.63;;;;;;;;;;5003229;28;20870;-44
2022/11/10 04:10:46;;;;;;;12.07;3.37;;;;;;;;;;5002031;28;20423;-44
2022/11/10 04:15:57;;;;;;;15.87;4.73;;;;;;;;;;4995006;28;20462;-44
2022/11/10 04:18:23;;;;;;;9.30;3.10;;;;;;;;;;5004717;28;20415;-43
2022/11/10 04:20:50;;;;;;;8.83;3.30;;;;;;;;;;4998938;28;20420;-44
2022/11/10 04:23:37;;;;;;;11.00;3.13;;;;;;;;;;5000768;28;20459;-47
2022/11/10 04:28:50;;;;;;;11.00;4.27;;;;;;;;;;5003361;28;20430;-45
2022/11/10 04:31:17;;;;;;;11.20;3.37;;;;;;;;;;5001085;28;20555;-43
2022/11/10 04:36:46;;;;;;;18.03;4.80;;;;;;;;;;5001777;28;20468;-43
2022/11/10 04:39:12;;;;;;;10.60;3.50;;;;;;;;;;5006487;28;20499;-43
2022/11/10 04:41:39;;;;;;;12.13;3.50;;;;;;;;;;5001228;28;20925;-44
2022/11/10 04:44:04;;;;;;;25.37;4.00;;;;;;;;;;5005575;28;20460;-43
2022/11/10 04:46:32;;;;;;;17.73;4.47;;;;;;;;;;5001805;28;20419;-45
2022/11/10 04:48:58;;;;;;;9.60;3.00;;;;;;;;;;5004162;28;20415;-44
2022/11/10 04:51:25;;;;;;;12.10;3.17;;;;;;;;;;4997661;28;20809;-43
2022/11/10 04:53:51;;;;;;;11.87;2.77;;;;;;;;;;5003096;28;20442;-43
2022/11/10 04:56:19;;;;;;;12.67;3.67;;;;;;;;;;5002435;28;20465;-44
2022/11/10 04:58:45;;;;;;;16.83;3.40;;;;;;;;;;5000649;28;20500;-43
2022/11/10 05:01:11;;;;;;;7.43;3.43;;;;;;;;;;5002493;28;20490;-43
2022/11/10 05:03:38;;;;;;;11.20;3.23;;;;;;;;;;5003471;28;20829;-46
2022/11/10 05:06:04;;;;;;;8.70;3.47;;;;;;;;;;4998412;28;20917;-46
2022/11/10 05:08:29;;;;;;;15.43;3.70;;;;;;;;;;5008862;28;20422;-46
2022/11/10 05:10:56;;;;;;;14.73;3.20;;;;;;;;;;5001570;28;20411;-43
2022/11/10 05:13:22;;;;;;;10.77;3.93;;;;;;;;;;5002372;28;20789;-44
2022/11/10 05:15:48;;;;;;;13.90;3.43;;;;;;;;;;5002513;28;20423;-44
2022/11/10 05:18:13;;;;;;;11.67;3.30;;;;;;;;;;5000875;28;20423;-44
2022/11/10 05:20:39;;;;;;;10.87;2.90;;;;;;;;;;5001270;28;20430;-44
2022/11/10 05:25:50;;;;;;;13.90;4.03;;;;;;;;;;5006374;28;20932;-44
2022/11/10 05:28:16;;;;;;;12.40;3.80;;;;;;;;;;5002703;28;20415;-45
2022/11/10 05:30:42;;;;;;;20.87;5.33;;;;;;;;;;4998032;28;20491;-46
2022/11/10 05:33:08;;;;;;;13.67;3.70;;;;;;;;;;5004820;28;20772;-46
2022/11/10 05:35:35;;;;;;;8.90;4.10;;;;;;;;;;5000198;28;20422;-45
2022/11/10 05:38:01;;;;;;;15.10;3.83;;;;;;;;;;5006260;28;20415;-44
2022/11/10 05:40:27;;;;;;;8.33;3.57;;;;;;;;;;4999760;28;20796;-44
2022/11/10 05:42:53;;;;;;;12.83;3.70;;;;;;;;;;5004515;28;20514;-44
2022/11/10 05:45:23;;;;;;;20.23;3.83;;;;;;;;;;5001443;28;20419;-44
2022/11/10 05:47:50;;;;;;;18.23;4.77;;;;;;;;;;4996534;28;20443;-45
2022/11/10 05:50:16;;;;;;;8.13;3.40;;;;;;;;;;5003533;28;20442;-44
2022/11/10 05:52:44;;;;;;;14.47;4.30;;;;;;;;;;5001337;28;20439;-44
2022/11/10 05:55:10;;;;;;;11.87;4.10;;;;;;;;;;5002856;28;20421;-48
2022/11/10 05:57:36;;;;;;;17.20;4.93;;;;;;;;;;5000240;28;20415;-46
2022/11/10 06:00:03;;;;;;;11.17;4.20;;;;;;;;;;5002027;28;20505;-43
2022/11/10 06:02:29;;;;;;;11.80;4.30;;;;;;;;;;4993636;28;20462;-45
2022/11/10 06:04:55;;;;;;;6.07;3.43;;;;;;;;;;5003083;28;20423;-45
2022/11/10 06:07:21;;;;;;;10.03;4.10;;;;;;;;;;4996772;28;20412;-46
2022/11/10 06:09:47;;;;;;;13.27;4.30;;;;;;;;;;5001707;28;20411;-44
2022/11/10 06:12:13;;;;;;;10.20;4.20;;;;;;;;;;5001322;28;20450;-44
2022/11/10 06:14:39;;;;;;;11.20;3.90;;;;;;;;;;5004426;28;20412;-44
2022/11/10 06:17:05;;;;;;;5.03;3.53;;;;;;;;;;5003835;28;20400;-43
2022/11/10 06:19:31;;;;;;;14.27;4.13;;;;;;;;;;5003543;28;20476;-43
2022/11/10 06:21:57;;;;;;;11.00;4.13;;;;;;;;;;5002723;28;20431;-44
2022/11/10 06:24:23;;;;;;;11.67;3.17;;;;;;;;;;5007018;28;20407;-44
2022/11/10 06:26:49;;;;;;;13.20;3.87;;;;;;;;;;5000700;28;20446;-45
2022/11/10 06:29:15;;;;;;;12.43;4.00;;;;;;;;;;5003142;28;20412;-47
2022/11/10 06:31:41;;;;;;;19.70;4.73;;;;;;;;;;5005221;28;20974;-44
2022/11/10 06:34:07;;;;;;;9.67;3.40;;;;;;;;;;5002865;28;20474;-44
2022/11/10 06:36:33;;;;;;;16.70;4.20;;;;;;;;;;5003165;28;20427;-43
2022/11/10 06:38:59;;;;;;;10.47;3.47;;;;;;;;;;5004590;28;20411;-44
2022/11/10 06:41:25;;;;;;;13.87;3.47;;;;;;;;;;5005081;28;20439;-44
2022/11/10 06:43:51;;;;;;;17.63;3.93;;;;;;;;;;4999659;28;20572;-44
2022/11/10 06:46:17;;;;;;;10.20;3.20;;;;;;;;;;4999951;28;20427;-44
2022/11/10 06:48:43;;;;;;;10.53;3.63;;;;;;;;;;5005477;28;20412;-44
2022/11/10 06:51:09;;;;;;;14.33;3.90;;;;;;;;;;5004523;28;20445;-46
2022/11/10 06:53:35;;;;;;;7.00;3.20;;;;;;;;;;5005545;28;20418;-47
2022/11/10 06:56:01;;;;;;;15.07;3.80;;;;;;;;;;5002549;28;20478;-43
2022/11/10 06:58:27;;;;;;;15.03;3.30;;;;;;;;;;5003712;28;20766;-44
2022/11/10 07:00:53;;;;;;;8.70;3.57;;;;;;;;;;4997434;28;20559;-44
2022/11/10 07:03:18;;;;;;;9.93;3.83;;;;;;;;;;5005729;28;20971;-44
2022/11/10 07:05:44;;;;;;;14.47;5.60;;;;;;;;;;5002636;28;20797;-44
2022/11/10 07:08:15;;;;;;;10.73;3.20;;;;;;;;;;5003798;28;20772;-44
2022/11/10 07:10:41;;;;;;;15.77;4.03;;;;;;;;;;5003331;28;20404;-44
2022/11/10 07:13:08;;;;;;;10.70;3.53;;;;;;;;;;5003285;28;20411;-43
2022/11/10 07:15:35;;;;;;;16.83;3.90;;;;;;;;;;5004962;28;20714;-44
2022/11/10 07:18:02;;;;;;;12.87;3.57;;;;;;;;;;5002330;28;20415;-43
2022/11/10 07:20:28;;;;;;;11.40;3.70;;;;;;;;;;5005227;28;20426;-44
2022/11/10 07:22:58;;;;;;;13.63;3.80;;;;;;;;;;4999622;28;20459;-43
2022/11/10 07:25:24;;;;;;;15.97;3.43;;;;;;;;;;5000131;28;20422;-44
2022/11/10 07:27:54;;;;;;;13.00;3.50;;;;;;;;;;5001990;28;20487;-44
2022/11/10 07:30:20;;;;;;;13.53;4.17;;;;;;;;;;5001690;28;20405;-46
2022/11/10 07:32:46;;;;;;;8.67;3.20;;;;;;;;;;5003580;28;20443;-44
2022/11/10 07:35:11;;;;;;;13.53;3.80;;;;;;;;;;5004947;28;20455;-44
2022/11/10 07:37:37;;;;;;;10.97;3.40;;;;;;;;;;5003253;28;20507;-43
2022/11/10 07:40:04;;;;;;;18.47;3.37;;;;;;;;;;5004839;28;20419;-44
2022/11/10 07:42:29;;;;;;;11.87;3.43;;;;;;;;;;4997573;28;20873;-43
2022/11/10 07:44:55;;;;;;;9.90;3.43;;;;;;;;;;5005296;28;20491;-43
2022/11/10 07:47:23;;;;;;;15.53;3.50;;;;;;;;;;5003461;28;20912;-44
2022/11/10 07:49:49;;;;;;;7.17;3.93;;;;;;;;;;5000308;28;20420;-45
2022/11/10 07:52:15;;;;;;;9.77;3.03;;;;;;;;;;4992457;28;20447;-43
2022/11/10 07:54:41;;;;;;;11.00;3.17;;;;;;;;;;4993037;28;20419;-43
2022/11/10 07:57:07;;;;;;;15.37;3.37;;;;;;;;;;4997942;28;20848;-43
2022/11/10 07:59:33;;;;;;;15.87;3.60;;;;;;;;;;4991436;28;20787;-43
2022/11/10 08:01:59;;;;;;;8.00;3.70;;;;;;;;;;4991036;28;20440;-43
2022/11/10 08:04:25;;;;;;;12.40;3.57;;;;;;;;;;4992333;28;20420;-44
2022/11/10 08:06:53;;;;;;;12.10;3.00;;;;;;;;;;4993000;28;20440;-43
2022/11/10 08:09:19;;;;;;;14.63;4.30;;;;;;;;;;4992230;28;20443;-44
2022/11/10 08:11:45;;;;;;;11.87;3.40;;;;;;;;;;4992314;28;20432;-43
2022/11/10 08:14:11;;;;;;;9.00;3.00;;;;;;;;;;4991994;28;20933;-43
2022/11/10 08:16:37;;;;;;;10.60;3.30;;;;;;;;;;4991992;28;20474;-43
2022/11/10 08:19:03;;;;;;;20.27;3.77;;;;;;;;;;4984046;28;20788;-43
2022/11/10 08:21:29;;;;;;;22.20;3.73;;;;;;;;;;4988384;28;20445;-43
2022/11/10 08:23:54;;;;;;;9.70;2.90;;;;;;;;;;4992377;28;20570;-44
2022/11/10 08:26:20;;;;;;;22.10;5.23;;;;;;;;;;4992617;28;20413;-47
2022/11/10 08:28:47;;;;;;;8.43;3.03;;;;;;;;;;4995716;28;20470;-42
2022/11/10 08:31:12;;;;;;;7.30;3.30;;;;;;;;;;5003365;28;20466;-43
2022/11/10 08:33:38;;;;;;;6.20;2.87;;;;;;;;;;4991150;28;20459;-43
2022/11/10 08:36:04;;;;;;;10.30;3.27;;;;;;;;;;4992313;28;20500;-43
2022/11/10 08:38:30;;;;;;;9.53;2.97;;;;;;;;;;4992082;28;20456;-43
2022/11/10 08:40:57;;;;;;;12.70;4.50;;;;;;;;;;5003365;28;20489;-44
2022/11/10 08:43:23;;;;;;;12.60;4.87;;;;;;;;;;4997495;28;21121;-44
2022/11/10 08:45:49;;;;;;;10.57;3.33;;;;;;;;;;5002893;28;20424;-43
2022/11/10 08:48:16;;;;;;;13.03;3.60;;;;;;;;;;5001410;28;20421;-43
2022/11/10 08:50:42;;;;;;;16.00;3.73;;;;;;;;;;5001976;28;20975;-44
2022/11/10 08:53:12;;;;;;;9.00;2.90;;;;;;;;;;4993870;28;20427;-43
2022/11/10 08:55:38;;;;;;;13.37;2.93;;;;;;;;;;5007165;28;20416;-43
2022/11/10 08:58:05;;;;;;;7.63;2.90;;;;;;;;;;4998960;28;20424;-43
2022/11/10 09:00:32;;;;;;;12.93;3.30;;;;;;;;;;4999933;28;20913;-43
2022/11/10 09:03:24;;;;;;;7.60;3.20;;;;;;;;;;4985337;28;20456;-45
2022/11/10 09:05:51;;;;;;;5.13;2.80;;;;;;;;;;4988822;28;20426;-46
2022/11/10 09:08:17;;;;;;;13.77;3.70;;;;;;;;;;5001501;28;20422;-46
2022/11/10 09:10:49;;;;;;;11.53;2.97;;;;;;;;;;5001290;28;20394;-45
2022/11/10 09:13:16;;;;;;;11.10;2.80;;;;;;;;;;5002996;28;20719;-45
2022/11/10 09:15:43;;;;;;;11.17;2.80;;;;;;;;;;4999682;28;20476;-45
2022/11/10 09:18:09;;;;;;;13.17;2.77;;;;;;;;;;4996698;28;20451;-46
2022/11/10 09:20:36;;;;;;;14.23;3.07;;;;;;;;;;5000028;28;20398;-45
2022/11/10 09:23:05;;;;;;;13.40;3.57;;;;;;;;;;5001977;28;20826;-45
2022/11/10 09:25:31;;;;;;;11.43;3.20;;;;;;;;;;5000020;28;20427;-46
2022/11/10 09:27:57;;;;;;;11.80;2.87;;;;;;;;;;5003087;28;20899;-45
2022/11/10 09:30:24;;;;;;;7.93;2.70;;;;;;;;;;4999653;28;20781;-45
2022/11/10 09:32:57;;;;;;;8.67;3.27;;;;;;;;;;5017328;28;21080;-45
2022/11/10 09:35:23;;;;;;;11.87;2.77;;;;;;;;;;4994960;28;20502;-46
2022/11/10 09:37:49;;;;;;;8.20;2.80;;;;;;;;;;5000853;28;20560;-46
2022/11/10 09:40:28;;;;;;;11.23;3.43;;;;;;;;;;5002886;28;20504;-46
2022/11/10 09:42:55;;;;;;;10.10;2.97;;;;;;;;;;4998278;28;20476;-45
2022/11/10 09:45:25;;;;;;;15.23;2.93;;;;;;;;;;5000579;28;20426;-46
2022/11/10 09:47:55;;;;;;;12.50;3.10;;;;;;;;;;5003440;28;20405;-47
2022/11/10 09:50:28;;;;;;;8.63;3.50;;;;;;;;;;5003660;28;20503;-46
2022/11/10 09:52:55;;;;;;;6.63;2.73;;;;;;;;;;5006741;28;20901;-45
2022/11/10 09:55:27;;;;;;;12.57;3.20;;;;;;;;;;5003701;28;20502;-45
2022/11/10 09:57:55;;;;;;;7.63;3.40;;;;;;;;;;5004033;28;20437;-45
2022/11/10 10:00:21;;;;;;;11.63;2.87;;;;;;;;;;5008038;28;20415;-45
2022/11/10 10:02:50;;;;;;;9.80;2.47;;;;;;;;;;5006574;28;20830;-47
2022/11/10 10:05:22;;;;;;;9.07;3.07;;;;;;;;;;5012981;28;20424;-46
2022/11/10 10:08:08;;;;;;;8.77;2.90;;;;;;;;;;5004209;28;20474;-47
2022/11/10 10:10:34;;;;;;;7.17;2.30;;;;;;;;;;5003651;28;20805;-46
2022/11/10 10:13:00;;;;;;;7.43;3.17;;;;;;;;;;5005695;28;20434;-47
2022/11/10 10:15:34;;;;;;;12.50;2.20;;;;;;;;;;5003343;28;20451;-46
2022/11/10 10:18:18;;;;;;;10.67;2.50;;;;;;;;;;5003007;28;20412;-47
2022/11/10 10:20:44;;;;;;;9.47;2.53;;;;;;;;;;5004589;28;20554;-47
2022/11/10 10:23:21;;;;;;;8.73;2.77;;;;;;;;;;5007139;28;20550;-46
2022/11/10 10:25:48;;;;;;;15.00;3.77;;;;;;;;;;5006175;28;20420;-46
2022/11/10 10:28:36;;;;;;;8.53;2.83;;;;;;;;;;5003432;28;20510;-46
2022/11/10 10:31:10;;;;;;;8.90;2.83;;;;;;;;;;5006118;28;20436;-48
2022/11/10 10:33:36;;;;;;;10.33;2.47;;;;;;;;;;5005062;28;20484;-46
2022/11/10 10:36:06;;;;;;;7.63;2.70;;;;;;;;;;5006399;28;20494;-45
2022/11/10 10:38:36;;;;;;;10.33;2.70;;;;;;;;;;5002181;28;20784;-47
2022/11/10 10:41:09;;;;;;;8.43;3.00;;;;;;;;;;5004699;28;20438;-46
2022/11/10 10:43:35;;;;;;;12.83;2.90;;;;;;;;;;5003444;28;20459;-47
2022/11/10 10:46:04;;;;;;;9.47;2.57;;;;;;;;;;5003176;28;20423;-47
2022/11/10 10:48:30;;;;;;;11.40;2.30;;;;;;;;;;5002631;28;20419;-46
2022/11/10 10:50:56;;;;;;;7.10;2.07;;;;;;;;;;5008081;28;20831;-46
2022/11/10 10:53:25;;;;;;;8.30;2.60;;;;;;;;;;5005443;28;20415;-46
2022/11/10 10:55:50;;;;;;;6.40;2.53;;;;;;;;;;5005481;28;20424;-46
2022/11/10 10:58:24;;;;;;;13.47;2.97;;;;;;;;;;4999609;28;20415;-46
2022/11/10 11:00:53;;;;;;;7.50;2.30;;;;;;;;;;5004181;28;20455;-46
2022/11/10 11:03:24;;;;;;;7.00;3.37;;;;;;;;;;5005178;28;20487;-46
2022/11/10 11:06:19;;;;;;;9.33;2.30;;;;;;;;;;5002756;28;20411;-47
2022/11/10 11:08:57;;;;;;;5.77;2.07;;;;;;;;;;5003067;28;20451;-46
2022/11/10 11:11:34;;;;;;;6.20;2.53;;;;;;;;;;4997744;28;20432;-46
2022/11/10 11:14:14;;;;;;;5.80;1.90;;;;;;;;;;5002494;28;20407;-46
2022/11/10 11:16:50;;;;;;;9.77;2.40;;;;;;;;;;5004535;28;20416;-48
2022/11/10 11:19:17;;;;;;;3.63;1.83;;;;;;;;;;5008273;28;20413;-46
2022/11/10 11:21:55;;;;;;;11.87;2.30;;;;;;;;;;5003399;28;20941;-47
2022/11/10 11:24:24;;;;;;;7.30;2.50;;;;;;;;;;5003296;28;20512;-46
2022/11/10 11:27:09;;;;;;;12.00;2.87;;;;;;;;;;4998340;28;20478;-46
2022/11/10 11:29:41;;;;;;;7.27;2.30;;;;;;;;;;5004627;28;20453;-46
2022/11/10 11:32:07;;;;;;;6.50;2.53;;;;;;;;;;5004447;28;20505;-47
2022/11/10 11:34:39;;;;;;;9.73;2.73;;;;;;;;;;5001265;28;20423;-46
2022/11/10 11:37:11;;;;;;;7.93;2.33;;;;;;;;;;5003396;28;20411;-48
2022/11/10 11:39:47;;;;;;;9.13;2.20;;;;;;;;;;5008155;28;20427;-46
2022/11/10 11:42:22;;;;;;;5.70;2.47;;;;;;;;;;4995810;28;20984;-45
2022/11/10 11:45:15;;;;;;;5.87;2.20;;;;;;;;;;5008155;28;20415;-46
2022/11/10 11:48:00;;;;;;;10.50;3.07;;;;;;;;;;5001100;28;20403;-45
2022/11/10 11:50:26;;;;;;;15.03;2.97;;;;;;;;;;5001430;28;20415;-47
2022/11/10 11:53:04;;;;;;;6.20;2.27;;;;;;;;;;5004415;28;20573;-46
2022/11/10 11:55:36;;;;;;;11.90;2.50;;;;;;;;;;5004932;28;20507;-46
2022/11/10 11:58:05;;;;;;;10.87;2.83;;;;;;;;;;4993446;28;20427;-45
2022/11/10 12:00:39;;;;;;;9.83;2.67;;;;;;;;;;5008532;28;20446;-47
2022/11/10 12:03:20;;;;;;;12.17;2.20;;;;;;;;;;5000564;28;20947;-47
2022/11/10 12:05:55;;;;;;;6.53;2.10;;;;;;;;;;5004124;28;20948;-46
2022/11/10 12:08:40;;;;;;;5.60;2.30;;;;;;;;;;4998360;28;20787;-47
2022/11/10 12:11:26;;;;;;;4.13;1.53;;;;;;;;;;4997627;28;20434;-46
2022/11/10 12:14:11;;;;;;;9.67;2.73;;;;;;;;;;4999467;28;20424;-46
2022/11/10 12:16:38;;;;;;;5.73;2.23;;;;;;;;;;5001967;28;20781;-45
2022/11/10 12:19:17;;;;;;;7.20;2.03;;;;;;;;;;4999842;28;20827;-45
2022/11/10 12:21:49;;;;;;;10.43;3.13;;;;;;;;;;5001809;28;20509;-47
2022/11/10 12:24:18;;;;;;;11.00;2.23;;;;;;;;;;5001057;28;20459;-46
2022/11/10 12:26:58;;;;;;;8.20;2.63;;;;;;;;;;5003012;28;20424;-45
2022/11/10 12:29:24;;;;;;;11.93;2.40;;;;;;;;;;5019888;28;20526;-45
2022/11/10 12:31:53;;;;;;;8.13;2.00;;;;;;;;;;4995461;28;20443;-46
2022/11/10 12:34:22;;;;;;;9.60;2.33;;;;;;;;;;5002124;28;20475;-45
2022/11/10 12:36:49;;;;;;;8.30;2.40;;;;;;;;;;5003732;28;20432;-45
2022/11/10 12:39:21;;;;;;;5.00;2.10;;;;;;;;;;5007289;28;20420;-45
2022/11/10 12:41:53;;;;;;;7.67;2.73;;;;;;;;;;5003163;28;20447;-45
2022/11/10 12:44:25;;;;;;;7.37;2.40;;;;;;;;;;4998233;28;20460;-46
2022/11/10 12:46:55;;;;;;;11.30;3.17;;;;;;;;;;5002968;28;20413;-47
2022/11/10 12:49:34;;;;;;;4.20;1.87;;;;;;;;;;4996168;28;20404;-45
2022/11/10 12:52:19;;;;;;;11.37;2.37;;;;;;;;;;4999476;28;20924;-46
2022/11/10 12:54:46;;;;;;;6.70;2.33;;;;;;;;;;5001047;28;20479;-44
2022/11/10 12:57:21;;;;;;;4.30;1.77;;;;;;;;;;5003579;28;20478;-45
2022/11/10 12:59:50;;;;;;;4.80;2.17;;;;;;;;;;5001100;28;20418;-45
2022/11/10 13:02:31;;;;;;;7.10;2.13;;;;;;;;;;5003644;28;20502;-45
2022/11/10 13:05:20;;;;;;;6.93;2.20;;;;;;;;;;4996971;28;20419;-45
2022/11/10 13:07:50;;;;;;;5.93;2.13;;;;;;;;;;4998779;28;20918;-45
2022/11/10 13:10:19;;;;;;;3.83;1.80;;;;;;;;;;5001049;28;20865;-45
2022/11/10 13:12:58;;;;;;;4.50;2.10;;;;;;;;;;5000155;28;20493;-47
2022/11/10 13:15:39;;;;;;;6.30;2.03;;;;;;;;;;4999381;28;20473;-45
2022/11/10 13:18:08;;;;;;;7.70;2.20;;;;;;;;;;4993359;28;20475;-46
2022/11/10 13:20:50;;;;;;;4.03;2.10;;;;;;;;;;4999239;28;20909;-45
2022/11/10 13:23:23;;;;;;;5.33;1.73;;;;;;;;;;5003512;28;20482;-48
2022/11/10 13:26:09;;;;;;;8.03;1.77;;;;;;;;;;5002822;28;20442;-48
2022/11/10 13:28:48;;;;;;;4.23;1.67;;;;;;;;;;4997726;28;20410;-47
2022/11/10 13:31:26;;;;;;;4.80;1.70;;;;;;;;;;5000400;28;20441;-47
2022/11/10 13:34:07;;;;;;;6.50;1.90;;;;;;;;;;4992137;28;20438;-47
2022/11/10 13:36:37;;;;;;;6.63;2.47;;;;;;;;;;5002186;28;20859;-48
2022/11/10 13:39:22;;;;;;;4.37;2.13;;;;;;;;;;4999831;28;20415;-46
2022/11/10 13:41:49;;;;;;;8.27;1.77;;;;;;;;;;5004306;28;20943;-46
2022/11/10 13:44:24;;;;;;;4.73;1.53;;;;;;;;;;4999684;28;20454;-46
2022/11/10 13:46:53;;;;;;;6.40;1.53;;;;;;;;;;5002173;28;20427;-45
2022/11/10 13:49:28;;;;;;;4.50;1.33;;;;;;;;;;5001929;28;20901;-47
2022/11/10 13:52:05;;;;;;;2.07;1.50;;;;;;;;;;5002252;28;20488;-45
2022/11/10 13:54:54;;;;;;;4.70;1.70;;;;;;;;;;4999416;28;20555;-45
2022/11/10 13:57:24;;;;;;;4.70;1.60;;;;;;;;;;4995028;28;20917;-45
2022/11/10 13:59:52;;;;;;;4.27;2.00;;;;;;;;;;5000748;28;20417;-47
2022/11/10 14:02:33;;;;;;;5.47;1.90;;;;;;;;;;4998412;28;20470;-46
2022/11/10 14:05:03;;;;;;;5.70;1.90;;;;;;;;;;4993841;28;20497;-45
2022/11/10 14:07:31;;;;;;;3.73;1.40;;;;;;;;;;5001577;28;20426;-45
2022/11/10 14:10:03;;;;;;;7.03;1.87;;;;;;;;;;5005793;28;20827;-44
2022/11/10 14:12:47;;;;;;;10.13;2.17;;;;;;;;;;5002911;28;20511;-45
2022/11/10 14:15:22;;;;;;;7.23;2.00;;;;;;;;;;4993062;28;20471;-47
2022/11/10 14:17:49;;;;;;;5.70;2.00;;;;;;;;;;4994788;28;20408;-45
2022/11/10 14:20:34;;;;;;;4.63;1.60;;;;;;;;;;5002861;28;20424;-45
2022/11/10 14:23:04;;;;;;;8.17;1.77;;;;;;;;;;4992832;28;20444;-45
2022/11/10 14:25:35;;;;;;;4.67;1.90;;;;;;;;;;4998295;28;20428;-45
2022/11/10 14:28:02;;;;;;;2.90;1.93;;;;;;;;;;4992227;28;20411;-46
2022/11/10 14:30:30;;;;;;;7.87;1.83;;;;;;;;;;5005782;28;20736;-45
2022/11/10 14:33:08;;;;;;;5.60;1.57;;;;;;;;;;5001946;28;20485;-46
2022/11/10 14:35:43;;;;;;;4.60;1.97;;;;;;;;;;5010292;28;20953;-45
2022/11/10 14:38:17;;;;;;;5.00;1.53;;;;;;;;;;5018004;28;20414;-45
2022/11/10 14:40:43;;;;;;;4.77;2.07;;;;;;;;;;4999092;28;20473;-46
2022/11/10 14:43:29;;;;;;;3.60;1.60;;;;;;;;;;5006222;28;20528;-45
2022/11/10 14:45:55;;;;;;;4.40;1.80;;;;;;;;;;4997915;28;20387;-45
2022/11/10 14:48:23;;;;;;;5.40;2.23;;;;;;;;;;5005746;28;20386;-45
2022/11/10 14:50:49;;;;;;;4.43;1.60;;;;;;;;;;4997874;28;20442;-47
2022/11/10 14:53:21;;;;;;;7.80;1.77;;;;;;;;;;5003100;28;20903;-46
2022/11/10 14:55:47;;;;;;;3.83;1.77;;;;;;;;;;5004249;28;20474;-47
2022/11/10 14:58:45;;;;;;;5.17;1.93;;;;;;;;;;5002727;28;20470;-46
2022/11/10 15:01:26;;;;;;;3.50;1.67;;;;;;;;;;4982717;28;20439;-46
2022/11/10 15:03:52;;;;;;;4.00;2.40;;;;;;;;;;5003013;28;20976;-45
2022/11/10 15:06:19;;;;;;;4.53;2.10;;;;;;;;;;5002259;28;20510;-46